Main page
METAR-TAF:

METAR-TAF

Airports :

Niamtougou International Airport

Niamtougou, Togo

latitude: 09-46N, longitude: 001-06E, elevation: 342 m

Current weather observation

The report was made 2 hours and 48 minutes ago, at 21:00 UTC
Wind 2 kt from the East/Northeast
Temperature 24°C
Humidity 74%
Pressure 1014 hPa
Visibility: 7000 m

METAR: DXNG 282100Z 06002KT 7000 NSC 24/19 Q1014

Time: 23:48 (23:48 UTC)

Forecast

The report was made 48 minutes ago, at 23:00 UTC
Forecast valid from 29 at 00 UTC to 29 at 24 UTC
Wind 3 kt from variable directions
Visibility: 7000 m

TAF: DXNG 282300Z 2900/2924 VRB03KT 7000 NSC

Weather observations and forecasts of more than 4000 airports (METAR and TAF reports).

The available stations are represented by yellow and red dots on the map.

Hover mouse over dot to see the name of the station.

Then click to see weather observations and forecasts.

To change the map : click on the green buttons with a black cross to zoom in, on the green button with a dash to zoom out, or on the green arrows for adjacent maps.


METAR-TAF: